• Join FlightAware (Why Join?)
  • Login
  • US Flag 
06:05AM EDT


 

Airport Tracker/Info


-or-


 

Live Flight TrackerFlight Track Log ✈ SWA16 ✈ 30-Apr-2013 ✈ KHOU - KDAL

Flight Track Log - Related Links

Times and Time Zones

All times are in EDT time to prevent confusion due to time zone crossing. See the SWA16 flight status page for this flight to view local times or setup timezone preferences in your user account.

Time Position Orientation Groundspeed Altitude Reporting Facility
EDT Latitude Longitude Course Direction KTS MPH feet Rate Location/Type
11:07AM 29.6925 -95.2486 16° North 239 275 4,000  Level Houston Center
11:08AM 29.7408 -95.2606 348° North 247 284 6,000 2,940 Climbing Houston Center
11:08AM 29.7658 -95.2686 344° North 280 322 7,000 3,540 Climbing Houston Center
11:09AM 29.8197 -95.2828 347° North 277 319 9,700 3,780 Climbing Houston Center
11:09AM 29.8456 -95.2900 346° North 300 345 10,900 3,240 Climbing Houston Center
11:10AM 29.9078 -95.3067 347° North 318 366 13,100 2,820 Climbing Houston Center
11:11AM 30.0039 -95.3328 347° North 350 403 16,000 2,940 Climbing Houston Center
11:12AM 30.1039 -95.3600 347° North 366 421 19,200 3,000 Climbing Houston Center
11:13AM 30.2086 -95.3883 347° North 382 440 22,300 3,060 Climbing Houston Center
11:14AM 30.3406 -95.4253 346° North 404 465 25,600 2,640 Climbing Houston Center
11:15AM 30.4564 -95.4556 347° North 422 486 27,800 2,220 Climbing Houston Center
11:16AM 30.5772 -95.4861 348° North 441 507 30,300 1,980 Climbing Houston Center
11:17AM 30.6969 -95.5122 349° North 449 517 32,000 780 Climbing Houston Center
11:18AM 30.8244 -95.5408 349° North 457 526 32,000  Level Houston Center
11:19AM 30.9794 -95.5756 349° North 464 534 32,000  Level Houston Center
11:20AM 31.1086 -95.6058 349° North 466 536 32,000  Level Houston Center
11:21AM 31.2350 -95.6497 343° North 470 541 32,000  Level Houston Center
11:22AM 31.2953 -95.6800 337° Northwest 458 527 32,000 -540 Level Fort Worth Center
11:23AM 31.4047 -95.7486 332° Northwest 445 512 31,300 -1,500 Descending Fort Worth Center
11:24AM 31.5142 -95.8147 333° Northwest 445 512 29,000 -2,400 Descending Fort Worth Center
11:25AM 31.6194 -95.8764 333° Northwest 432 497 26,600 -2,340 Descending Fort Worth Center
11:26AM 31.7225 -95.9406 332° Northwest 421 484 24,400 -2,220 Descending Fort Worth Center
11:27AM 31.8192 -95.9953 334° Northwest 393 452 22,200 -2,100 Descending Fort Worth Center
11:28AM 31.9094 -96.0528 332° Northwest 377 434 20,200 -2,100 Descending Fort Worth Center
11:29AM 31.9978 -96.1053 333° Northwest 366 421 18,100 -2,100 Descending Fort Worth Center
11:30AM 32.0839 -96.1556 334° Northwest 349 402 16,100 -1,980 Descending Fort Worth Center
11:31AM 32.1700 -96.2083 333° Northwest 349 402 14,200 -1,800 Descending Fort Worth Center
11:32AM 32.2414 -96.2564 330° Northwest 337 388 12,500 -1,860 Descending Fort Worth Center
11:33AM 32.3317 -96.3069 335° Northwest 331 381 10,500 -1,380 Descending Fort Worth Center
11:34AM 32.3967 -96.3481 332° Northwest 314 361 9,800 -900 Descending Fort Worth Center
11:35AM 32.4764 -96.3939 334° Northwest 290 334 8,700 -1,080 Descending Fort Worth Center
11:36AM 32.5394 -96.4325 333° Northwest 284 327 7,700 -1,020 Descending Fort Worth Center
11:37AM 32.6169 -96.4786 333° Northwest 289 333 6,700 -1,020 Descending Fort Worth Center
11:38AM 32.6800 -96.5175 333° Northwest 284 327 5,700 -900 Descending Fort Worth Center
11:39AM 32.7431 -96.5786 321° Northwest 278 320 5,000 -360 Descending Fort Worth Center
11:40AM 32.7956 -96.6275 322° Northwest 273 314 5,000  Level Fort Worth Center
11:40AM 32.8333 -96.6667 319° Northwest 269 310 5,000 -540 Level Dallas / Fort Worth TRACON
11:41AM 32.8833 -96.7167 320° Northwest 270 311 4,200 -660 Descending Dallas / Fort Worth TRACON
11:42AM 32.9333 -96.7833 312° West 237 273 3,700 -840 Descending Dallas / Fort Worth TRACON
11:43AM 32.9667 -96.8500 301° West 216 249 2,600 -900 Descending Dallas / Fort Worth TRACON
11:44AM 32.9333 -96.9000 232° Southwest 183 211 2,000 -600 Descending Dallas / Fort Worth TRACON
11:45AM 32.9000 -96.9000 180° South 136 157 1,500 -540 Descending Dallas / Fort Worth TRACON
11:46AM 32.8667 -96.8667 140° Southeast 137 158 900 -600 Descending Dallas / Fort Worth TRACON
11:48AM 32.8471 -96.8518 200° South  Level Estimated
11:55AM 32.8471 -96.8518 200° South  Level Estimated